Time;durP1;ratioP1;P1;durP2;ratioP2;P2;SDS_P1;SDS_P2;PMS_P1;PMS_P2;Temp;Humidity;BMP_temperature;BMP_pressure;BME280_temperature;BME280_humidity;BME280_pressure;Samples;Min_cycle;Max_cycle;Signal;HPM_P1;HPM_P2
2020/12/20 00:01:14;;;;;;;45.75;22.67;;;;;;;;;;5112630;28;20054;-20
2020/12/20 00:03:40;;;;;;;39.80;20.60;;;;;;;;;;5112399;28;20377;-19
2020/12/20 00:06:05;;;;;;;44.88;20.80;;;;;;;;;;5112637;28;20031;-19
2020/12/20 00:08:30;;;;;;;43.50;21.23;;;;;;;;;;5112261;28;20028;-20
2020/12/20 00:10:56;;;;;;;53.53;23.73;;;;;;;;;;5112318;28;20591;-18
2020/12/20 00:13:21;;;;;;;51.65;22.05;;;;;;;;;;5111021;28;20023;-18
2020/12/20 00:15:47;;;;;;;41.83;21.33;;;;;;;;;;5113633;28;20101;-18
2020/12/20 00:18:12;;;;;;;38.80;18.45;;;;;;;;;;5116089;28;20168;-18
2020/12/20 00:20:38;;;;;;;42.50;19.58;;;;;;;;;;5116048;28;20032;-18
2020/12/20 00:23:03;;;;;;;44.60;21.05;;;;;;;;;;5115814;28;20027;-18
2020/12/20 00:25:29;;;;;;;47.53;22.92;;;;;;;;;;5115909;28;20035;-18
2020/12/20 00:27:54;;;;;;;52.55;23.08;;;;;;;;;;5115878;28;20027;-18
2020/12/20 00:30:21;;;;;;;46.72;20.73;;;;;;;;;;5114501;28;20027;-18
2020/12/20 00:32:46;;;;;;;46.85;20.42;;;;;;;;;;5115832;28;20098;-18
2020/12/20 00:35:12;;;;;;;51.20;20.63;;;;;;;;;;5116138;28;20505;-18
2020/12/20 00:37:37;;;;;;;41.38;20.40;;;;;;;;;;5115971;28;20024;-17
2020/12/20 00:40:04;;;;;;;45.58;20.67;;;;;;;;;;5115656;28;20352;-18
2020/12/20 00:42:29;;;;;;;53.55;21.50;;;;;;;;;;5115634;28;20378;-18
2020/12/20 00:44:55;;;;;;;39.70;18.48;;;;;;;;;;5115741;28;20020;-18
2020/12/20 00:47:20;;;;;;;43.95;18.75;;;;;;;;;;5114259;28;20020;-18
2020/12/20 00:49:46;;;;;;;48.65;22.40;;;;;;;;;;5115360;28;20058;-18
2020/12/20 00:52:11;;;;;;;42.65;20.85;;;;;;;;;;5114235;28;20114;-18
2020/12/20 00:54:38;;;;;;;44.28;20.92;;;;;;;;;;5113973;28;20043;-20
2020/12/20 00:57:05;;;;;;;43.88;21.63;;;;;;;;;;5114102;28;20023;-17
2020/12/20 00:59:31;;;;;;;45.20;20.23;;;;;;;;;;5113811;28;20024;-18
2020/12/20 01:01:59;;;;;;;41.85;20.20;;;;;;;;;;5115188;28;20531;-19
2020/12/20 01:04:27;;;;;;;42.90;19.88;;;;;;;;;;5113868;28;20501;-19
2020/12/20 01:06:58;;;;;;;47.40;20.45;;;;;;;;;;5113639;28;20020;-19
2020/12/20 01:09:25;;;;;;;45.22;19.90;;;;;;;;;;5113960;28;20062;-18
2020/12/20 01:11:51;;;;;;;45.13;21.00;;;;;;;;;;5114956;28;20467;-17
2020/12/20 01:14:19;;;;;;;35.90;19.02;;;;;;;;;;5097062;28;20027;-18
2020/12/20 01:16:54;;;;;;;40.13;19.55;;;;;;;;;;5115022;28;20370;-18
2020/12/20 01:19:20;;;;;;;41.25;19.13;;;;;;;;;;5096650;28;20027;-19
2020/12/20 01:21:45;;;;;;;41.70;19.48;;;;;;;;;;5114896;28;20023;-18
2020/12/20 01:24:11;;;;;;;40.65;19.02;;;;;;;;;;5113493;28;20106;-17
2020/12/20 01:26:36;;;;;;;43.60;19.83;;;;;;;;;;5112941;28;20111;-19
2020/12/20 01:29:02;;;;;;;46.47;19.92;;;;;;;;;;5112784;28;20375;-18
2020/12/20 01:31:28;;;;;;;45.47;20.08;;;;;;;;;;5113540;28;20119;-18
2020/12/20 01:34:23;;;;;;;50.70;20.67;;;;;;;;;;5100950;28;20481;-18
2020/12/20 01:36:49;;;;;;;44.08;20.50;;;;;;;;;;5113243;28;20036;-18
2020/12/20 01:39:15;;;;;;;45.15;19.38;;;;;;;;;;5113258;28;20528;-19
2020/12/20 01:41:41;;;;;;;47.10;19.08;;;;;;;;;;5114383;28;20020;-19
2020/12/20 01:44:11;;;;;;;43.53;20.23;;;;;;;;;;5114472;28;20069;-18
2020/12/20 01:46:42;;;;;;;52.38;21.58;;;;;;;;;;5096765;28;20032;-18
2020/12/20 01:49:09;;;;;;;49.70;22.73;;;;;;;;;;5113032;28;20075;-18
2020/12/20 01:51:35;;;;;;;48.90;21.23;;;;;;;;;;5112881;28;20493;-17
2020/12/20 01:54:08;;;;;;;40.22;20.00;;;;;;;;;;5114247;28;20032;-17
2020/12/20 01:56:34;;;;;;;51.10;22.00;;;;;;;;;;5112971;28;20032;-18
2020/12/20 01:59:03;;;;;;;48.25;21.77;;;;;;;;;;5112804;28;20019;-19
2020/12/20 02:01:37;;;;;;;46.58;20.75;;;;;;;;;;5114007;28;20078;-18
2020/12/20 02:04:10;;;;;;;43.13;19.35;;;;;;;;;;5112732;28;20123;-18
2020/12/20 02:06:44;;;;;;;47.58;21.17;;;;;;;;;;5112612;28;20520;-18
2020/12/20 02:09:09;;;;;;;48.28;20.75;;;;;;;;;;5112519;28;20450;-20
2020/12/20 02:11:35;;;;;;;49.85;19.52;;;;;;;;;;5112618;28;20132;-19
2020/12/20 02:14:07;;;;;;;41.08;18.35;;;;;;;;;;5112477;28;20032;-19
2020/12/20 02:16:55;;;;;;;37.47;16.40;;;;;;;;;;5113519;28;20067;-18
2020/12/20 02:19:22;;;;;;;48.38;20.13;;;;;;;;;;5112439;28;20035;-19
2020/12/20 02:21:57;;;;;;;45.20;19.95;;;;;;;;;;5112380;28;20067;-19
2020/12/20 02:24:25;;;;;;;41.50;17.98;;;;;;;;;;5112235;28;20052;-18
2020/12/20 02:26:59;;;;;;;45.28;18.30;;;;;;;;;;5112164;28;20060;-19
2020/12/20 02:29:27;;;;;;;51.00;20.88;;;;;;;;;;5112254;28;20032;-18
2020/12/20 02:31:52;;;;;;;38.92;17.88;;;;;;;;;;5112173;28;20016;-19
2020/12/20 02:34:18;;;;;;;47.65;20.98;;;;;;;;;;5113395;28;20096;-18
2020/12/20 02:36:47;;;;;;;49.50;20.80;;;;;;;;;;5112003;28;20423;-18
2020/12/20 02:39:21;;;;;;;46.63;19.63;;;;;;;;;;5113467;28;20390;-18
2020/12/20 02:41:56;;;;;;;42.03;20.08;;;;;;;;;;5113314;28;20031;-18
2020/12/20 02:44:23;;;;;;;38.75;18.08;;;;;;;;;;5095323;28;20062;-19
2020/12/20 02:46:53;;;;;;;44.72;18.83;;;;;;;;;;5111762;28;20620;-18
2020/12/20 02:49:24;;;;;;;45.65;19.73;;;;;;;;;;5111690;28;20035;-20
2020/12/20 02:51:52;;;;;;;51.67;18.75;;;;;;;;;;5111744;28;20073;-18
2020/12/20 02:54:18;;;;;;;46.55;18.35;;;;;;;;;;5111836;28;20394;-20
2020/12/20 02:56:44;;;;;;;45.10;19.42;;;;;;;;;;5111739;28;20023;-18
2020/12/20 02:59:15;;;;;;;55.50;24.88;;;;;;;;;;5111778;28;20016;-19
2020/12/20 03:01:40;;;;;;;57.28;23.27;;;;;;;;;;5113084;28;20072;-18
2020/12/20 03:04:10;;;;;;;59.65;24.40;;;;;;;;;;5111741;28;20080;-18
2020/12/20 03:06:35;;;;;;;51.72;23.73;;;;;;;;;;5111563;28;20028;-19
2020/12/20 03:09:03;;;;;;;45.47;18.80;;;;;;;;;;5112808;28;20039;-18
2020/12/20 03:11:29;;;;;;;44.17;19.42;;;;;;;;;;5112999;28;20031;-19
2020/12/20 03:13:54;;;;;;;39.88;17.75;;;;;;;;;;5111391;28;20050;-19
2020/12/20 03:16:20;;;;;;;45.65;19.05;;;;;;;;;;5111567;28;20016;-18
2020/12/20 03:18:45;;;;;;;45.22;18.60;;;;;;;;;;5111506;28;20521;-18
2020/12/20 03:21:11;;;;;;;44.65;19.40;;;;;;;;;;5111441;28;20026;-18
2020/12/20 03:23:47;;;;;;;46.08;19.90;;;;;;;;;;5111502;28;20110;-18
2020/12/20 03:26:51;;;;;;;51.03;19.90;;;;;;;;;;5049735;28;20048;-19
2020/12/20 03:29:36;;;;;;;47.70;20.25;;;;;;;;;;5049857;28;20041;-18
2020/12/20 03:32:32;;;;;;;43.83;20.42;;;;;;;;;;5095621;28;20389;-18
2020/12/20 03:35:14;;;;;;;51.22;20.92;;;;;;;;;;5111398;28;20024;-19
2020/12/20 03:37:50;;;;;;;44.60;21.52;;;;;;;;;;5111328;28;20039;-18
2020/12/20 03:40:19;;;;;;;51.05;21.77;;;;;;;;;;5111464;28;20038;-18
2020/12/20 03:42:46;;;;;;;47.75;21.55;;;;;;;;;;5111166;28;20016;-18
2020/12/20 03:45:12;;;;;;;48.97;23.05;;;;;;;;;;5111316;28;20028;-19
2020/12/20 03:47:38;;;;;;;51.90;22.42;;;;;;;;;;5111159;28;20035;-18
2020/12/20 03:50:04;;;;;;;53.90;21.65;;;;;;;;;;5094280;28;20048;-17
2020/12/20 03:52:31;;;;;;;43.50;18.65;;;;;;;;;;5115350;28;20433;-18
2020/12/20 03:55:03;;;;;;;46.28;19.20;;;;;;;;;;5116711;28;20023;-17
2020/12/20 03:57:29;;;;;;;43.50;18.23;;;;;;;;;;5115212;28;20046;-17
2020/12/20 03:59:57;;;;;;;50.25;19.63;;;;;;;;;;5115186;28;20031;-16
2020/12/20 04:02:23;;;;;;;44.25;19.08;;;;;;;;;;5115072;28;20032;-20
2020/12/20 04:04:49;;;;;;;44.03;17.55;;;;;;;;;;5114920;28;20023;-19
2020/12/20 04:07:14;;;;;;;43.85;18.75;;;;;;;;;;5115037;28;20074;-18
2020/12/20 04:09:44;;;;;;;44.40;17.50;;;;;;;;;;5114802;28;20023;-18
2020/12/20 04:12:23;;;;;;;43.15;17.83;;;;;;;;;;5116607;28;20424;-19
2020/12/20 04:14:49;;;;;;;38.10;16.88;;;;;;;;;;5114687;28;20027;-19
2020/12/20 04:17:15;;;;;;;45.70;17.90;;;;;;;;;;5114809;28;20016;-19
2020/12/20 04:19:40;;;;;;;45.47;19.05;;;;;;;;;;5116372;28;20102;-19
2020/12/20 04:22:18;;;;;;;48.47;18.70;;;;;;;;;;5114789;28;20118;-19
2020/12/20 04:25:07;;;;;;;39.42;17.98;;;;;;;;;;5115722;28;20546;-18
2020/12/20 04:27:48;;;;;;;44.45;18.25;;;;;;;;;;5114503;28;20055;-18
2020/12/20 04:30:15;;;;;;;41.55;18.85;;;;;;;;;;5114619;28;20032;-18
2020/12/20 04:32:41;;;;;;;48.85;18.58;;;;;;;;;;5114879;28;20020;-18
2020/12/20 04:35:08;;;;;;;55.38;23.13;;;;;;;;;;5114405;28;20027;-18
2020/12/20 04:37:37;;;;;;;46.22;18.55;;;;;;;;;;5114398;28;20042;-20
2020/12/20 04:40:14;;;;;;;41.28;18.40;;;;;;;;;;5114445;28;20038;-19
2020/12/20 04:42:46;;;;;;;53.03;20.13;;;;;;;;;;5114268;28;20112;-19
2020/12/20 04:45:14;;;;;;;55.28;22.55;;;;;;;;;;5114277;28;20024;-18
2020/12/20 04:47:48;;;;;;;54.63;21.90;;;;;;;;;;5114124;28;20027;-20
2020/12/20 04:50:18;;;;;;;59.15;22.50;;;;;;;;;;5114043;28;20051;-19
2020/12/20 04:52:46;;;;;;;51.45;22.35;;;;;;;;;;5114005;28;20073;-19
2020/12/20 04:55:22;;;;;;;54.45;20.73;;;;;;;;;;5114074;28;20030;-18
2020/12/20 04:58:11;;;;;;;58.78;22.83;;;;;;;;;;5106991;28;20098;-18
2020/12/20 05:00:37;;;;;;;54.55;23.10;;;;;;;;;;5114032;28;20122;-17
2020/12/20 05:03:02;;;;;;;45.47;18.95;;;;;;;;;;5113851;28;20034;-18
2020/12/20 05:05:28;;;;;;;49.13;20.10;;;;;;;;;;5113935;28;20030;-17
2020/12/20 05:07:54;;;;;;;53.13;22.85;;;;;;;;;;5113530;28;20074;-17
2020/12/20 05:10:36;;;;;;;50.38;20.00;;;;;;;;;;5113884;28;20505;-18
2020/12/20 05:13:02;;;;;;;49.40;22.40;;;;;;;;;;5113726;28;20031;-18
2020/12/20 05:15:30;;;;;;;46.53;20.23;;;;;;;;;;5113689;28;20058;-17
2020/12/20 05:18:22;;;;;;;53.47;23.88;;;;;;;;;;5111857;28;20087;-18
2020/12/20 05:20:58;;;;;;;49.05;20.58;;;;;;;;;;5098087;28;20027;-19
2020/12/20 05:23:31;;;;;;;43.35;20.33;;;;;;;;;;5113640;28;20076;-19
2020/12/20 05:26:29;;;;;;;47.30;20.15;;;;;;;;;;5113624;28;20084;-19
2020/12/20 05:29:09;;;;;;;49.45;20.33;;;;;;;;;;5114678;28;20036;-20
2020/12/20 05:31:34;;;;;;;54.47;21.40;;;;;;;;;;5113458;28;20542;-18
2020/12/20 05:34:11;;;;;;;49.40;21.23;;;;;;;;;;5114999;28;20381;-17
2020/12/20 05:36:41;;;;;;;48.10;21.27;;;;;;;;;;5113354;28;20035;-18
2020/12/20 05:39:36;;;;;;;37.65;18.83;;;;;;;;;;5102223;28;20424;-18
2020/12/20 05:42:09;;;;;;;49.53;20.73;;;;;;;;;;5113227;28;20366;-18
2020/12/20 05:44:37;;;;;;;47.20;19.95;;;;;;;;;;5113153;28;20019;-19
2020/12/20 05:47:08;;;;;;;45.88;20.95;;;;;;;;;;5113045;28;20080;-18
2020/12/20 05:49:41;;;;;;;45.00;19.63;;;;;;;;;;5113056;28;20076;-19
2020/12/20 05:52:12;;;;;;;47.65;20.58;;;;;;;;;;5113079;28;20030;-17
2020/12/20 05:54:39;;;;;;;46.33;20.33;;;;;;;;;;5112938;28;20031;-19
2020/12/20 05:57:14;;;;;;;47.60;21.85;;;;;;;;;;5114423;28;20012;-18
2020/12/20 05:59:40;;;;;;;47.70;20.58;;;;;;;;;;5114544;28;20028;-18
2020/12/20 06:02:06;;;;;;;51.03;20.25;;;;;;;;;;5114081;28;20458;-18
2020/12/20 06:04:33;;;;;;;49.40;20.70;;;;;;;;;;5114085;28;20111;-18
2020/12/20 06:06:58;;;;;;;45.60;18.52;;;;;;;;;;5113922;28;20030;-19
2020/12/20 06:09:25;;;;;;;38.10;17.73;;;;;;;;;;5114003;28;20122;-18
2020/12/20 06:11:52;;;;;;;42.35;17.73;;;;;;;;;;5112531;28;20019;-18
2020/12/20 06:14:18;;;;;;;49.97;19.67;;;;;;;;;;5112106;28;20023;-20
2020/12/20 06:16:46;;;;;;;41.97;17.23;;;;;;;;;;5113777;28;20477;-18
2020/12/20 06:19:21;;;;;;;46.17;19.00;;;;;;;;;;5114019;28;20024;-18
2020/12/20 06:22:07;;;;;;;42.42;17.67;;;;;;;;;;5113808;28;20042;-17
2020/12/20 06:24:35;;;;;;;40.97;17.90;;;;;;;;;;5113666;28;20031;-19
2020/12/20 06:27:02;;;;;;;46.13;20.10;;;;;;;;;;5113629;28;20014;-19
2020/12/20 06:29:28;;;;;;;48.70;18.85;;;;;;;;;;5113626;28;20043;-19
2020/12/20 06:31:55;;;;;;;45.33;19.33;;;;;;;;;;5113727;28;20016;-18
2020/12/20 06:34:21;;;;;;;46.85;18.90;;;;;;;;;;5112240;28;20027;-18
2020/12/20 06:36:46;;;;;;;51.88;21.23;;;;;;;;;;5112142;28;20111;-19
2020/12/20 06:39:16;;;;;;;53.95;22.27;;;;;;;;;;5113321;28;20120;-18
2020/12/20 06:41:42;;;;;;;51.75;22.50;;;;;;;;;;5113295;28;20100;-19
2020/12/20 06:44:13;;;;;;;50.63;21.35;;;;;;;;;;5113251;28;20031;-19
2020/12/20 06:46:39;;;;;;;46.95;21.15;;;;;;;;;;5113562;28;20028;-18
2020/12/20 06:49:23;;;;;;;46.47;20.38;;;;;;;;;;5113159;28;20383;-19
2020/12/20 06:51:48;;;;;;;52.83;21.25;;;;;;;;;;5113154;28;20047;-18
2020/12/20 06:54:23;;;;;;;50.78;21.25;;;;;;;;;;5113347;28;20028;-19
2020/12/20 06:57:07;;;;;;;42.35;20.42;;;;;;;;;;5113037;28;20497;-18
2020/12/20 06:59:43;;;;;;;52.58;21.58;;;;;;;;;;5113206;28;20051;-18
2020/12/20 07:02:09;;;;;;;43.33;19.83;;;;;;;;;;5111782;28;20381;-18
2020/12/20 07:04:40;;;;;;;46.28;19.98;;;;;;;;;;5111714;28;20019;-18
2020/12/20 07:07:06;;;;;;;50.90;19.77;;;;;;;;;;5111601;28;20028;-18
2020/12/20 07:09:32;;;;;;;42.42;18.73;;;;;;;;;;5113041;28;20023;-19
2020/12/20 07:11:58;;;;;;;47.30;19.40;;;;;;;;;;5112874;28;20465;-18
2020/12/20 07:14:23;;;;;;;39.20;18.45;;;;;;;;;;5112909;28;20136;-18
2020/12/20 07:16:50;;;;;;;42.75;18.65;;;;;;;;;;5111453;28;20027;-28
2020/12/20 07:19:25;;;;;;;36.58;16.50;;;;;;;;;;5112925;28;20020;-18
2020/12/20 07:21:53;;;;;;;37.78;17.33;;;;;;;;;;5111481;28;20480;-17
2020/12/20 07:24:22;;;;;;;39.40;16.77;;;;;;;;;;5111611;28;20147;-18
2020/12/20 07:26:48;;;;;;;36.95;16.25;;;;;;;;;;5112114;28;20027;-18
2020/12/20 07:29:14;;;;;;;42.60;17.77;;;;;;;;;;5111231;28;20411;-17
2020/12/20 07:31:39;;;;;;;41.08;16.45;;;;;;;;;;5112674;28;20110;-18
2020/12/20 07:34:06;;;;;;;40.13;18.42;;;;;;;;;;5112421;28;20072;-19
2020/12/20 07:36:32;;;;;;;38.08;16.55;;;;;;;;;;5112057;28;20032;-19
2020/12/20 07:38:58;;;;;;;38.00;18.70;;;;;;;;;;5111300;28;20027;-19
2020/12/20 07:41:24;;;;;;;33.05;15.77;;;;;;;;;;5110744;28;20034;-17
2020/12/20 07:43:50;;;;;;;39.95;16.98;;;;;;;;;;4752392;28;9999653;-20
2020/12/20 07:46:16;;;;;;;37.30;17.17;;;;;;;;;;5088626;28;20025;-20
2020/12/20 07:48:42;;;;;;;42.22;20.40;;;;;;;;;;5088371;28;20033;-22
2020/12/20 07:51:19;;;;;;;37.65;18.17;;;;;;;;;;5086814;28;20124;-22
2020/12/20 07:53:55;;;;;;;39.15;19.10;;;;;;;;;;5087039;28;20028;-22
2020/12/20 07:56:31;;;;;;;44.72;21.10;;;;;;;;;;5088347;28;20036;-21
2020/12/20 07:58:58;;;;;;;46.63;20.70;;;;;;;;;;5088535;28;20031;-20
2020/12/20 08:01:24;;;;;;;39.78;18.17;;;;;;;;;;5088797;28;20061;-20
2020/12/20 08:03:59;;;;;;;46.53;20.42;;;;;;;;;;5088128;28;20020;-20
2020/12/20 08:06:25;;;;;;;36.42;17.15;;;;;;;;;;5088681;28;20024;-21
2020/12/20 08:08:50;;;;;;;42.30;18.58;;;;;;;;;;5087724;28;20024;-20
2020/12/20 08:11:17;;;;;;;38.20;18.58;;;;;;;;;;5087028;28;20032;-21
2020/12/20 08:13:49;;;;;;;42.90;19.52;;;;;;;;;;5091372;28;20024;-20
2020/12/20 08:16:19;;;;;;;43.25;18.27;;;;;;;;;;5088323;28;20028;-20
2020/12/20 08:18:50;;;;;;;39.70;18.40;;;;;;;;;;5086661;28;20028;-20
2020/12/20 08:21:16;;;;;;;37.92;16.60;;;;;;;;;;5097279;28;20421;-21
2020/12/20 08:23:42;;;;;;;42.60;18.30;;;;;;;;;;5104494;28;20027;-20
2020/12/20 08:26:07;;;;;;;47.72;19.23;;;;;;;;;;5100526;28;20169;-20
2020/12/20 08:28:33;;;;;;;41.25;17.95;;;;;;;;;;5091158;28;20383;-20
2020/12/20 08:31:12;;;;;;;44.90;18.65;;;;;;;;;;5093957;28;20024;-21
2020/12/20 08:33:38;;;;;;;44.15;19.15;;;;;;;;;;5090586;28;20035;-20
2020/12/20 08:36:03;;;;;;;45.17;18.10;;;;;;;;;;5095914;28;20028;-18
2020/12/20 08:38:29;;;;;;;38.42;18.30;;;;;;;;;;5094914;28;20093;-19
2020/12/20 08:40:54;;;;;;;39.47;18.98;;;;;;;;;;5095304;28;20042;-19
2020/12/20 08:43:23;;;;;;;37.85;17.67;;;;;;;;;;5092263;28;20067;-18
2020/12/20 08:45:48;;;;;;;41.83;18.98;;;;;;;;;;5096069;28;20073;-18
2020/12/20 08:48:19;;;;;;;40.08;16.42;;;;;;;;;;5073017;28;20040;-19
2020/12/20 08:50:44;;;;;;;43.05;17.75;;;;;;;;;;5091167;28;20056;-18
2020/12/20 08:53:10;;;;;;;42.67;17.13;;;;;;;;;;5101421;28;20030;-17
2020/12/20 08:55:35;;;;;;;36.50;17.23;;;;;;;;;;5090867;28;20030;-17
2020/12/20 08:58:04;;;;;;;38.97;15.88;;;;;;;;;;5091152;28;20020;-22
2020/12/20 09:00:31;;;;;;;38.85;17.50;;;;;;;;;;5109420;28;20028;-18
2020/12/20 09:02:58;;;;;;;37.67;16.25;;;;;;;;;;5111523;28;20135;-19
2020/12/20 09:05:26;;;;;;;39.17;18.20;;;;;;;;;;5112021;28;20427;-20
2020/12/20 09:07:52;;;;;;;36.90;16.23;;;;;;;;;;5111507;28;20035;-19
2020/12/20 09:10:19;;;;;;;39.92;19.02;;;;;;;;;;5111267;28;20063;-19
2020/12/20 09:12:55;;;;;;;35.25;17.27;;;;;;;;;;5111345;28;20080;-18
2020/12/20 09:15:30;;;;;;;39.95;17.23;;;;;;;;;;5111321;28;20580;-20
2020/12/20 09:17:59;;;;;;;33.60;16.42;;;;;;;;;;5105858;28;20084;-19
2020/12/20 09:20:27;;;;;;;40.65;17.00;;;;;;;;;;5095010;28;20039;-18
2020/12/20 09:22:53;;;;;;;29.88;15.35;;;;;;;;;;5090793;28;20028;-19
2020/12/20 09:25:31;;;;;;;31.13;13.68;;;;;;;;;;5097742;28;20016;-19
2020/12/20 09:27:59;;;;;;;29.40;15.45;;;;;;;;;;5101010;28;20036;-18
2020/12/20 09:30:28;;;;;;;23.55;11.95;;;;;;;;;;5095042;28;20031;-18
2020/12/20 09:32:54;;;;;;;21.98;12.95;;;;;;;;;;5090851;28;20100;-18
2020/12/20 09:35:20;;;;;;;27.98;14.18;;;;;;;;;;5097164;28;20470;-18
2020/12/20 09:37:45;;;;;;;25.55;12.73;;;;;;;;;;5102343;28;20028;-18
2020/12/20 09:40:10;;;;;;;29.58;13.70;;;;;;;;;;5093082;28;20756;-18
2020/12/20 09:42:46;;;;;;;24.15;12.82;;;;;;;;;;5110660;28;20449;-18
2020/12/20 09:45:11;;;;;;;28.08;13.02;;;;;;;;;;5095136;28;20020;-19
2020/12/20 09:47:44;;;;;;;28.85;13.52;;;;;;;;;;5090186;28;20039;-19
2020/12/20 09:50:10;;;;;;;31.75;14.82;;;;;;;;;;5090096;28;20048;-18
2020/12/20 09:52:36;;;;;;;30.92;13.57;;;;;;;;;;5090654;28;20490;-18
2020/12/20 09:55:03;;;;;;;25.63;12.52;;;;;;;;;;5090222;28;20072;-19
2020/12/20 09:57:29;;;;;;;25.52;13.50;;;;;;;;;;5088394;28;20050;-18
2020/12/20 09:59:55;;;;;;;31.52;15.10;;;;;;;;;;5089912;28;20024;-19
2020/12/20 10:02:20;;;;;;;36.38;15.75;;;;;;;;;;5088838;28;20032;-19
2020/12/20 10:04:46;;;;;;;30.05;15.73;;;;;;;;;;5089585;28;20394;-19
2020/12/20 10:07:11;;;;;;;32.25;13.88;;;;;;;;;;5093678;28;20020;-18
2020/12/20 10:09:37;;;;;;;26.33;13.10;;;;;;;;;;5109935;28;20027;-19
2020/12/20 10:12:03;;;;;;;27.85;12.32;;;;;;;;;;5108683;28;20016;-19
2020/12/20 10:14:28;;;;;;;28.63;12.45;;;;;;;;;;5110561;28;20032;-19
2020/12/20 10:16:54;;;;;;;25.27;13.02;;;;;;;;;;5110229;28;20020;-19
2020/12/20 10:19:20;;;;;;;26.42;13.35;;;;;;;;;;5108670;28;20031;-19
2020/12/20 10:22:14;;;;;;;25.35;13.18;;;;;;;;;;5110087;28;20430;-21
2020/12/20 10:24:40;;;;;;;21.80;12.13;;;;;;;;;;5109930;28;20031;-19
2020/12/20 10:27:05;;;;;;;21.63;11.13;;;;;;;;;;5110354;28;20041;-19
2020/12/20 10:29:30;;;;;;;24.10;9.85;;;;;;;;;;5110291;28;20517;-19
2020/12/20 10:31:56;;;;;;;15.93;9.70;;;;;;;;;;5109892;28;20454;-20
2020/12/20 10:34:21;;;;;;;19.05;9.60;;;;;;;;;;5109125;28;20506;-19
2020/12/20 10:36:49;;;;;;;19.60;9.68;;;;;;;;;;5110659;28;20020;-19
2020/12/20 10:39:14;;;;;;;22.00;11.05;;;;;;;;;;5110436;28;20031;-19
2020/12/20 10:41:40;;;;;;;18.85;10.35;;;;;;;;;;5110018;28;20049;-19
2020/12/20 10:44:06;;;;;;;18.92;10.57;;;;;;;;;;5105648;28;20035;-20
2020/12/20 10:46:35;;;;;;;19.77;11.40;;;;;;;;;;5106384;28;20447;-19
2020/12/20 10:49:01;;;;;;;22.10;11.52;;;;;;;;;;5109121;28;20097;-18
2020/12/20 10:51:27;;;;;;;27.95;12.35;;;;;;;;;;5109704;28;20585;-19
2020/12/20 10:53:53;;;;;;;25.98;12.05;;;;;;;;;;5109457;28;20059;-18
2020/12/20 10:56:18;;;;;;;23.65;10.77;;;;;;;;;;5107840;28;20437;-20
2020/12/20 10:58:48;;;;;;;19.92;10.98;;;;;;;;;;5107931;28;20514;-18
2020/12/20 11:01:14;;;;;;;21.23;11.48;;;;;;;;;;5109592;28;20072;-19
2020/12/20 11:03:39;;;;;;;23.05;11.93;;;;;;;;;;5108189;28;20027;-19
2020/12/20 11:06:05;;;;;;;29.00;13.68;;;;;;;;;;5109526;28;20014;-19
2020/12/20 11:08:30;;;;;;;19.25;11.65;;;;;;;;;;5109227;28;20055;-18
2020/12/20 11:10:56;;;;;;;28.40;13.32;;;;;;;;;;5109430;28;20027;-18
2020/12/20 11:13:21;;;;;;;28.50;12.30;;;;;;;;;;5108251;28;20122;-19
2020/12/20 11:15:47;;;;;;;21.63;12.25;;;;;;;;;;5108120;28;20064;-20
2020/12/20 11:18:13;;;;;;;17.60;10.07;;;;;;;;;;5109659;28;20452;-16
2020/12/20 11:20:41;;;;;;;13.02;8.80;;;;;;;;;;5109458;28;20020;-17
2020/12/20 11:23:06;;;;;;;17.25;9.93;;;;;;;;;;5109573;28;20020;-17
2020/12/20 11:25:33;;;;;;;15.93;9.07;;;;;;;;;;5109892;28;20027;-18
2020/12/20 11:27:59;;;;;;;25.90;9.48;;;;;;;;;;5109100;28;20478;-19
2020/12/20 11:30:24;;;;;;;17.45;9.85;;;;;;;;;;5107998;28;20019;-19
2020/12/20 11:32:50;;;;;;;17.23;10.93;;;;;;;;;;5107531;28;20474;-19
2020/12/20 11:35:16;;;;;;;21.33;11.13;;;;;;;;;;5109166;28;20453;-18
2020/12/20 11:37:45;;;;;;;17.63;9.90;;;;;;;;;;5107855;28;20722;-18
2020/12/20 11:40:10;;;;;;;19.23;10.35;;;;;;;;;;5109286;28;20126;-18
2020/12/20 11:42:36;;;;;;;22.75;11.95;;;;;;;;;;5109344;28;20115;-18
2020/12/20 11:45:01;;;;;;;17.02;10.25;;;;;;;;;;5088560;28;20024;-19
2020/12/20 11:47:27;;;;;;;17.75;10.38;;;;;;;;;;5088952;28;20028;-19
2020/12/20 11:49:52;;;;;;;14.18;8.60;;;;;;;;;;5088533;28;20097;-19
2020/12/20 11:52:18;;;;;;;18.17;10.43;;;;;;;;;;5088669;28;20054;-19
2020/12/20 11:54:44;;;;;;;15.27;10.65;;;;;;;;;;5088634;28;20050;-22
2020/12/20 11:57:09;;;;;;;18.63;10.65;;;;;;;;;;5088517;28;20028;-18
2020/12/20 11:59:35;;;;;;;22.65;10.95;;;;;;;;;;5089073;28;20394;-20
2020/12/20 12:02:03;;;;;;;18.95;10.95;;;;;;;;;;5088809;28;20032;-20
2020/12/20 12:04:29;;;;;;;19.83;10.93;;;;;;;;;;5088958;28;20593;-19
2020/12/20 12:06:54;;;;;;;19.10;11.18;;;;;;;;;;5088914;28;20028;-19
2020/12/20 12:09:20;;;;;;;19.13;10.48;;;;;;;;;;5088509;28;20058;-21
2020/12/20 12:11:45;;;;;;;17.33;10.30;;;;;;;;;;5089936;28;20020;-22
2020/12/20 12:14:11;;;;;;;20.00;11.15;;;;;;;;;;5092310;28;20533;-19
2020/12/20 12:16:36;;;;;;;19.40;10.48;;;;;;;;;;5097662;28;20486;-18
2020/12/20 12:19:02;;;;;;;20.77;11.23;;;;;;;;;;5110438;28;20537;-19
2020/12/20 12:21:28;;;;;;;18.55;10.48;;;;;;;;;;5112289;28;20381;-20
2020/12/20 12:23:53;;;;;;;19.23;10.80;;;;;;;;;;5112396;28;20073;-19
2020/12/20 12:26:19;;;;;;;18.23;11.35;;;;;;;;;;5112601;28;20080;-19
2020/12/20 12:28:44;;;;;;;20.15;11.15;;;;;;;;;;5112720;28;20485;-19
2020/12/20 12:31:10;;;;;;;20.48;11.35;;;;;;;;;;5112622;28;20043;-20
2020/12/20 12:33:36;;;;;;;18.02;10.43;;;;;;;;;;5112280;28;20098;-19
2020/12/20 12:36:03;;;;;;;20.52;11.15;;;;;;;;;;5112304;28;20046;-20
2020/12/20 12:38:28;;;;;;;20.10;10.57;;;;;;;;;;5093645;28;20098;-18
2020/12/20 12:40:54;;;;;;;20.05;10.52;;;;;;;;;;5111867;27;20119;-19
2020/12/20 12:43:19;;;;;;;16.88;11.32;;;;;;;;;;5109567;28;20036;-18
2020/12/20 12:45:45;;;;;;;21.10;12.10;;;;;;;;;;5111595;28;20028;-21
2020/12/20 12:48:10;;;;;;;21.90;11.27;;;;;;;;;;5111836;28;20114;-20
2020/12/20 12:50:36;;;;;;;25.02;10.77;;;;;;;;;;5112104;28;20081;-20
2020/12/20 12:53:01;;;;;;;17.88;9.93;;;;;;;;;;5111629;28;20550;-18
2020/12/20 12:55:28;;;;;;;19.30;10.63;;;;;;;;;;5094028;28;20032;-19
2020/12/20 12:57:53;;;;;;;17.33;10.38;;;;;;;;;;5109863;28;20023;-19
2020/12/20 13:00:19;;;;;;;20.85;12.07;;;;;;;;;;5111575;28;20397;-20
2020/12/20 13:02:44;;;;;;;19.30;11.13;;;;;;;;;;5111501;28;20030;-21
2020/12/20 13:05:10;;;;;;;19.88;10.98;;;;;;;;;;5111748;27;20023;-19
2020/12/20 13:07:36;;;;;;;19.80;11.25;;;;;;;;;;5109927;28;20027;-20
2020/12/20 13:10:01;;;;;;;18.08;10.93;;;;;;;;;;5111055;28;20073;-20
2020/12/20 13:12:27;;;;;;;20.50;11.48;;;;;;;;;;5110394;28;20023;-20
2020/12/20 13:14:52;;;;;;;24.15;11.80;;;;;;;;;;5111802;28;20366;-19
2020/12/20 13:17:18;;;;;;;19.73;11.30;;;;;;;;;;5111748;28;20020;-19
2020/12/20 13:19:43;;;;;;;18.80;11.52;;;;;;;;;;5111307;28;20035;-19
2020/12/20 13:22:09;;;;;;;20.48;11.05;;;;;;;;;;5111257;28;20016;-19
2020/12/20 13:24:34;;;;;;;20.95;11.70;;;;;;;;;;5110748;28;20116;-20
2020/12/20 13:27:00;;;;;;;17.67;10.68;;;;;;;;;;5111276;28;20045;-17
2020/12/20 13:29:25;;;;;;;26.30;12.32;;;;;;;;;;5111485;28;20795;-20
2020/12/20 13:31:51;;;;;;;22.77;12.05;;;;;;;;;;5110621;28;20071;-19
2020/12/20 13:34:16;;;;;;;19.70;11.23;;;;;;;;;;5109890;28;20035;-20
2020/12/20 13:36:41;;;;;;;20.52;10.93;;;;;;;;;;5111568;27;20015;-20
2020/12/20 13:39:07;;;;;;;23.67;11.25;;;;;;;;;;5111688;28;20127;-19
2020/12/20 13:41:33;;;;;;;19.98;11.75;;;;;;;;;;5111506;28;20470;-19
2020/12/20 13:43:59;;;;;;;27.92;15.40;;;;;;;;;;5110573;28;20031;-19
2020/12/20 13:46:24;;;;;;;30.35;16.08;;;;;;;;;;5110808;28;20036;-18
2020/12/20 13:48:50;;;;;;;22.10;12.02;;;;;;;;;;5110838;28;20067;-18
2020/12/20 13:51:16;;;;;;;21.42;11.15;;;;;;;;;;5108770;28;20490;-19
2020/12/20 13:53:41;;;;;;;21.95;12.18;;;;;;;;;;5110557;28;20032;-21
2020/12/20 13:56:07;;;;;;;21.77;11.98;;;;;;;;;;5094305;28;20443;-20
2020/12/20 13:58:33;;;;;;;23.42;11.32;;;;;;;;;;5090009;28;20028;-18
2020/12/20 14:00:59;;;;;;;24.25;11.68;;;;;;;;;;5089800;28;20028;-20
2020/12/20 14:03:24;;;;;;;21.23;11.65;;;;;;;;;;5090771;28;20562;-20
2020/12/20 14:05:50;;;;;;;19.35;11.32;;;;;;;;;;5096004;28;20090;-19
2020/12/20 14:08:15;;;;;;;19.65;11.23;;;;;;;;;;5098596;28;20044;-19
2020/12/20 14:10:41;;;;;;;19.88;11.27;;;;;;;;;;5089871;28;20008;-19
2020/12/20 14:13:06;;;;;;;22.63;12.45;;;;;;;;;;5089738;28;20628;-18
2020/12/20 14:15:32;;;;;;;19.55;11.93;;;;;;;;;;5089639;28;20008;-19
2020/12/20 14:17:58;;;;;;;21.70;12.32;;;;;;;;;;5096268;28;20034;-19
2020/12/20 14:20:24;;;;;;;23.30;12.65;;;;;;;;;;5089496;28;20057;-19
2020/12/20 14:22:49;;;;;;;21.17;11.20;;;;;;;;;;5097632;28;20028;-19
2020/12/20 14:25:15;;;;;;;17.27;10.98;;;;;;;;;;5095130;28;20020;-19